createdAt,value
2023-03-11T00:00:47.349Z,95348.00
2023-03-11T00:03:27.701Z,95339.00
2023-03-11T00:05:56.076Z,95338.00
2023-03-11T00:08:24.659Z,95333.60
2023-03-11T00:10:58.878Z,95328.00
2023-03-11T00:13:27.214Z,95327.40
2023-03-11T00:15:59.641Z,95324.80
2023-03-11T00:18:30.222Z,95320.80
2023-03-11T00:20:59.079Z,95319.20
2023-03-11T00:23:27.562Z,95314.20
2023-03-11T00:25:55.628Z,95306.40
2023-03-11T00:28:26.130Z,95305.20
2023-03-11T00:30:54.485Z,95305.20
2023-03-11T00:33:22.570Z,95303.80
2023-03-11T00:35:51.032Z,95309.60
2023-03-11T00:38:21.378Z,95307.80
2023-03-11T00:40:49.646Z,95301.80
2023-03-11T00:43:18.013Z,95303.40
2023-03-11T00:45:48.933Z,95302.00
2023-03-11T00:48:17.135Z,95308.20
2023-03-11T00:50:45.513Z,95317.80
2023-03-11T00:53:13.731Z,95311.80
2023-03-11T00:55:41.817Z,95310.00
2023-03-11T00:58:18.022Z,95305.00
2023-03-11T01:00:55.061Z,95299.20
2023-03-11T01:03:23.147Z,95296.40
2023-03-11T01:05:51.350Z,95289.40
2023-03-11T01:08:22.279Z,95289.40
2023-03-11T01:10:51.013Z,95277.40
2023-03-11T01:13:23.149Z,95268.60
2023-03-11T01:15:51.316Z,95262.60
2023-03-11T01:18:20.522Z,95264.20
2023-03-11T01:20:48.695Z,95259.80
2023-03-11T01:23:17.397Z,95252.00
2023-03-11T01:25:45.904Z,95244.40
2023-03-11T01:28:13.979Z,95244.00
2023-03-11T01:30:42.327Z,95242.40
2023-03-11T01:33:15.196Z,95239.20
2023-03-11T01:36:06.497Z,95227.80
2023-03-11T01:38:34.698Z,95217.40
2023-03-11T01:41:02.698Z,95207.20
2023-03-11T01:43:43.092Z,95213.20
2023-03-11T01:46:26.517Z,95215.60
2023-03-11T01:48:56.330Z,95218.60
2023-03-11T01:51:27.521Z,95217.60
2023-03-11T01:53:55.779Z,95213.80
2023-03-11T01:56:24.307Z,95218.00
2023-03-11T01:58:52.695Z,95212.20
2023-03-11T02:01:21.121Z,95208.00
2023-03-11T02:03:55.345Z,95205.00
2023-03-11T02:06:27.766Z,95208.00
2023-03-11T02:08:56.116Z,95200.00
2023-03-11T02:11:27.626Z,95189.20
2023-03-11T02:13:57.998Z,95184.20
2023-03-11T02:16:29.486Z,95186.20
2023-03-11T02:18:59.155Z,95191.20
2023-03-11T02:21:31.228Z,95188.60
2023-03-11T02:24:24.423Z,95176.20
2023-03-11T02:27:08.779Z,95172.60
2023-03-11T02:29:37.044Z,95167.60
2023-03-11T02:32:07.032Z,95165.20
2023-03-11T02:34:37.143Z,95171.20
2023-03-11T02:37:06.687Z,95171.40
2023-03-11T02:39:42.128Z,95174.60
2023-03-11T02:42:32.334Z,95177.00
2023-03-11T02:45:01.354Z,95179.80
2023-03-11T02:47:29.927Z,95177.40
2023-03-11T02:49:58.350Z,95178.80
2023-03-11T02:52:28.224Z,95175.00
2023-03-11T02:54:56.523Z,95166.00
2023-03-11T02:57:24.923Z,95159.00
2023-03-11T02:59:53.306Z,95160.00
2023-03-11T03:02:21.580Z,95165.60
2023-03-11T03:04:49.909Z,95151.00
2023-03-11T03:07:18.339Z,95146.00
2023-03-11T03:09:46.452Z,95151.60
2023-03-11T03:12:14.679Z,95149.80
2023-03-11T03:14:43.028Z,95147.20
2023-03-11T03:17:11.366Z,95144.60
2023-03-11T03:19:41.062Z,95137.20
2023-03-11T03:22:09.237Z,95144.60
2023-03-11T03:24:37.561Z,95138.80
2023-03-11T03:27:05.870Z,95140.00
2023-03-11T03:29:34.177Z,95134.00
2023-03-11T03:32:02.522Z,95135.00
2023-03-11T03:34:30.664Z,95126.40
2023-03-11T03:36:58.965Z,95127.80
2023-03-11T03:39:30.421Z,95120.20
2023-03-11T03:42:02.347Z,95102.80
2023-03-11T03:44:31.700Z,95098.80
2023-03-11T03:47:03.427Z,95092.80
2023-03-11T03:49:32.530Z,95093.20
2023-03-11T03:52:00.678Z,95102.00
2023-03-11T03:54:32.772Z,95098.20
2023-03-11T03:57:00.987Z,95107.60
2023-03-11T03:59:30.073Z,95103.60
2023-03-11T04:02:00.751Z,95095.80
2023-03-11T04:04:30.618Z,95090.80
2023-03-11T04:06:58.877Z,95073.80
2023-03-11T04:09:27.087Z,95065.40
2023-03-11T04:11:55.432Z,95070.80
2023-03-11T04:14:23.816Z,95067.40
2023-03-11T04:16:56.013Z,95071.20
2023-03-11T04:19:24.652Z,95074.00
2023-03-11T04:21:52.716Z,95071.80
2023-03-11T04:24:21.463Z,95080.20
2023-03-11T04:26:49.662Z,95083.40
2023-03-11T04:29:18.082Z,95083.20
2023-03-11T04:31:49.455Z,95091.60
2023-03-11T04:34:17.876Z,95092.20
2023-03-11T04:36:46.021Z,95087.60
2023-03-11T04:39:15.400Z,95090.60
2023-03-11T04:41:44.606Z,95095.60
2023-03-11T04:44:15.869Z,95088.60
2023-03-11T04:46:43.980Z,95097.00
2023-03-11T04:49:12.179Z,95097.40
2023-03-11T04:51:40.434Z,95094.40
2023-03-11T04:54:08.833Z,95096.80
2023-03-11T04:56:37.016Z,95099.60
2023-03-11T04:59:05.316Z,95105.60
2023-03-11T05:01:33.852Z,95116.40
2023-03-11T05:04:03.565Z,95129.60
2023-03-11T05:06:31.832Z,95139.20
2023-03-11T05:09:00.382Z,95151.80
2023-03-11T05:11:28.933Z,95156.40
2023-03-11T05:13:58.064Z,95167.60
2023-03-11T05:16:26.252Z,95169.40
2023-03-11T05:18:54.349Z,95174.00
2023-03-11T05:21:22.605Z,95183.20
2023-03-11T05:23:50.602Z,95184.40
2023-03-11T05:26:18.569Z,95185.40
2023-03-11T05:28:46.728Z,95187.40
2023-03-11T05:31:15.141Z,95189.20
2023-03-11T05:33:43.511Z,95196.40
2023-03-11T05:36:12.975Z,95196.60
2023-03-11T05:38:42.977Z,95210.40
2023-03-11T05:41:11.374Z,95214.40
2023-03-11T05:43:39.600Z,95220.80
2023-03-11T05:46:07.847Z,95222.20
2023-03-11T05:48:36.476Z,95222.00
2023-03-11T05:51:11.858Z,95229.00
2023-03-11T05:53:48.722Z,95231.20
2023-03-11T05:56:21.152Z,95233.40
2023-03-11T05:58:50.052Z,95234.20
2023-03-11T06:01:19.248Z,95230.80
2023-03-11T06:03:47.534Z,95235.00
2023-03-11T06:06:15.859Z,95236.00
2023-03-11T06:08:49.702Z,95233.60
2023-03-11T06:11:18.400Z,95235.00
2023-03-11T06:13:46.667Z,95234.20
2023-03-11T06:16:15.184Z,95227.00
2023-03-11T06:18:43.382Z,95229.80
2023-03-11T06:21:15.921Z,95234.40
2023-03-11T06:23:44.584Z,95230.20
2023-03-11T06:26:14.351Z,95233.60
2023-03-11T06:28:43.928Z,95229.00
2023-03-11T06:31:20.610Z,95227.20
2023-03-11T06:33:48.860Z,95228.20
2023-03-11T06:36:18.016Z,95222.00
2023-03-11T06:38:46.729Z,95224.40
2023-03-11T06:41:16.079Z,95221.00
2023-03-11T06:43:44.235Z,95218.80
2023-03-11T06:46:16.721Z,95218.00
2023-03-11T06:48:46.437Z,95215.60
2023-03-11T06:51:15.669Z,95215.60
2023-03-11T06:53:44.005Z,95213.60
2023-03-11T06:56:13.020Z,95212.20
2023-03-11T06:58:46.016Z,95214.80
2023-03-11T07:01:24.472Z,95219.60
2023-03-11T07:03:53.913Z,95219.40
2023-03-11T07:06:26.169Z,95226.80
2023-03-11T07:08:59.043Z,95229.60
2023-03-11T07:11:28.177Z,95220.80
2023-03-11T07:14:01.696Z,95225.80
2023-03-11T07:16:31.754Z,95220.80
2023-03-11T07:19:05.571Z,95224.60
2023-03-11T07:21:34.033Z,95223.00
2023-03-11T07:24:02.634Z,95220.60
2023-03-11T07:26:31.201Z,95221.60
2023-03-11T07:28:59.308Z,95224.20
2023-03-11T07:31:29.296Z,95220.20
2023-03-11T07:33:58.646Z,95223.40
2023-03-11T07:36:26.991Z,95233.00
2023-03-11T07:39:04.345Z,95227.60
2023-03-11T07:41:33.691Z,95232.20
2023-03-11T07:44:01.883Z,95239.80
2023-03-11T07:46:30.637Z,95237.80
2023-03-11T07:49:04.647Z,95238.20
2023-03-11T07:51:56.432Z,95235.60
2023-03-11T07:54:24.600Z,95228.80
2023-03-11T07:56:52.662Z,95226.00
2023-03-11T07:59:20.783Z,95222.60
2023-03-11T08:01:58.373Z,95220.00
2023-03-11T08:04:26.861Z,95213.00
2023-03-11T08:06:55.024Z,95210.20
2023-03-11T08:09:23.011Z,95198.20
2023-03-11T08:11:51.111Z,95188.80
2023-03-11T08:14:19.188Z,95186.80
2023-03-11T08:16:55.992Z,95189.80
2023-03-11T08:19:24.125Z,95206.00
2023-03-11T08:21:52.282Z,95197.60
2023-03-11T08:24:20.410Z,95181.60
2023-03-11T08:26:51.325Z,95178.00
2023-03-11T08:29:19.494Z,95189.00
2023-03-11T08:31:47.783Z,95192.80
2023-03-11T08:34:16.002Z,95204.80
2023-03-11T08:36:47.365Z,95204.80
2023-03-11T08:39:15.555Z,95220.80
2023-03-11T08:41:46.682Z,95204.60
2023-03-11T08:44:14.680Z,95204.20
2023-03-11T08:46:43.079Z,95190.40
2023-03-11T08:49:11.167Z,95212.20
2023-03-11T08:51:39.315Z,95215.60
2023-03-11T08:54:07.279Z,95226.00
2023-03-11T08:56:35.352Z,95214.40
2023-03-11T08:59:03.633Z,95234.00
2023-03-11T09:01:31.787Z,95231.20
2023-03-11T09:03:59.823Z,95242.00
2023-03-11T09:06:30.476Z,95239.80
2023-03-11T09:08:58.629Z,95241.40
2023-03-11T09:11:26.691Z,95240.60
2023-03-11T09:13:54.674Z,95241.80
2023-03-11T09:16:22.988Z,95241.80
2023-03-11T09:18:51.137Z,95248.60
2023-03-11T09:21:19.468Z,95254.20
2023-03-11T09:23:47.908Z,95262.20
2023-03-11T09:26:15.979Z,95263.40
2023-03-11T09:28:48.952Z,95264.60
2023-03-11T09:31:17.449Z,95263.00
2023-03-11T09:33:46.496Z,95266.80
2023-03-11T09:36:15.764Z,95269.00
2023-03-11T09:38:43.845Z,95269.20
2023-03-11T09:41:18.002Z,95261.60
2023-03-11T09:44:08.579Z,95271.00
2023-03-11T09:47:07.519Z,95272.60
2023-03-11T09:49:42.828Z,95273.60
2023-03-11T09:52:12.685Z,95266.40
2023-03-11T09:54:51.735Z,95276.60
2023-03-11T09:57:22.407Z,95267.40
2023-03-11T09:59:50.497Z,95287.40
2023-03-11T10:02:19.860Z,95281.60
2023-03-11T10:05:06.589Z,95275.00
2023-03-11T10:07:38.519Z,95277.20
2023-03-11T10:10:06.989Z,95290.20
2023-03-11T10:12:52.565Z,95296.40
2023-03-11T10:15:42.150Z,95297.40
2023-03-11T10:18:25.101Z,95303.80
2023-03-11T10:20:59.066Z,95305.00
2023-03-11T10:23:33.405Z,95306.00
2023-03-11T10:26:10.613Z,95310.80
2023-03-11T10:29:03.583Z,95318.80
2023-03-11T10:31:41.344Z,95324.60
2023-03-11T10:34:18.314Z,95337.60
2023-03-11T10:36:54.344Z,95342.60
2023-03-11T10:39:22.965Z,95334.20
2023-03-11T10:42:00.990Z,95323.20
2023-03-11T10:44:39.567Z,95333.60
2023-03-11T10:47:13.066Z,95319.80
2023-03-11T10:49:41.038Z,95310.40
2023-03-11T10:52:09.047Z,95327.00
2023-03-11T10:54:39.878Z,95333.40
2023-03-11T10:57:29.202Z,95324.00
2023-03-11T10:59:58.791Z,95329.60
2023-03-11T11:02:32.599Z,95323.80
2023-03-11T11:05:18.463Z,95313.00
2023-03-11T11:07:50.736Z,95297.80
2023-03-11T11:10:23.357Z,95296.20
2023-03-11T11:13:13.448Z,95305.20
2023-03-11T11:15:47.067Z,95293.40
2023-03-11T11:18:26.637Z,95290.40
2023-03-11T11:21:06.612Z,95307.60
2023-03-11T11:23:41.183Z,95300.40
2023-03-11T11:26:25.440Z,95311.40
2023-03-11T11:29:12.470Z,95316.80
2023-03-11T11:31:42.293Z,95318.00
2023-03-11T11:34:33.871Z,95319.20
2023-03-11T11:37:04.334Z,95319.40
2023-03-11T11:39:56.913Z,95329.00
2023-03-11T11:42:25.122Z,95339.60
2023-03-11T11:44:59.248Z,95345.60
2023-03-11T11:47:33.570Z,95341.80
2023-03-11T11:50:05.157Z,95343.80
2023-03-11T11:52:45.267Z,95356.20
2023-03-11T11:55:17.176Z,95350.00
2023-03-11T11:57:45.177Z,95362.20
2023-03-11T12:00:21.124Z,95360.20
2023-03-11T12:03:10.568Z,95367.80
2023-03-11T12:05:57.747Z,95371.80
2023-03-11T12:09:01.534Z,95384.00
2023-03-11T12:11:38.372Z,95358.40
2023-03-11T12:14:22.110Z,95341.00
2023-03-11T12:17:03.600Z,95345.80
2023-03-11T12:19:37.328Z,95347.60
2023-03-11T12:22:25.676Z,95350.20
2023-03-11T12:25:12.017Z,95342.40
2023-03-11T12:28:12.520Z,95342.40
2023-03-11T12:30:48.868Z,95338.20
2023-03-11T12:33:24.241Z,95331.80
2023-03-11T12:35:58.661Z,95321.40
2023-03-11T12:38:40.084Z,95323.80
2023-03-11T12:41:14.129Z,95323.00
2023-03-11T12:43:42.071Z,95330.00
2023-03-11T12:46:14.457Z,95334.40
2023-03-11T12:49:15.031Z,95343.60
2023-03-11T12:51:43.607Z,95345.20
2023-03-11T12:54:27.753Z,95348.00
2023-03-11T12:56:59.799Z,95364.00
2023-03-11T12:59:45.661Z,95382.80
2023-03-11T13:02:30.160Z,95390.20
2023-03-11T13:05:00.139Z,95393.80
2023-03-11T13:07:46.351Z,95408.20
2023-03-11T13:10:33.812Z,95410.60
2023-03-11T13:13:02.364Z,95422.00
2023-03-11T13:15:33.953Z,95423.80
2023-03-11T13:18:14.130Z,95431.00
2023-03-11T13:20:42.168Z,95433.20
2023-03-11T13:23:12.869Z,95444.00
2023-03-11T13:25:53.227Z,95445.40
2023-03-11T13:28:39.696Z,95459.40
2023-03-11T13:31:39.090Z,95466.40
2023-03-11T13:34:07.288Z,95475.20
2023-03-11T13:36:50.338Z,95484.40
2023-03-11T13:39:27.139Z,95491.40
2023-03-11T13:41:55.221Z,95478.20
2023-03-11T13:44:28.204Z,95497.60
2023-03-11T13:47:25.739Z,95489.60
2023-03-11T13:50:01.240Z,95502.80
2023-03-11T13:52:35.089Z,95510.20
2023-03-11T13:55:06.626Z,95521.00
2023-03-11T13:57:36.188Z,95520.60
2023-03-11T14:00:17.643Z,95532.20
2023-03-11T14:02:47.839Z,95553.60
2023-03-11T14:05:21.128Z,95564.40
2023-03-11T14:07:49.313Z,95564.00
2023-03-11T14:10:22.342Z,95578.40
2023-03-11T14:12:50.481Z,95581.00
2023-03-11T14:15:26.439Z,95591.60
2023-03-11T14:17:55.133Z,95595.60
2023-03-11T14:20:25.426Z,95600.60
2023-03-11T14:22:55.183Z,95605.80
2023-03-11T14:25:28.703Z,95603.20
2023-03-11T14:28:00.983Z,95601.20
2023-03-11T14:30:30.710Z,95595.20
2023-03-11T14:33:06.089Z,95584.40
2023-03-11T14:35:34.454Z,95580.00
2023-03-11T14:38:02.482Z,95583.20
2023-03-11T14:40:32.268Z,95590.40
2023-03-11T14:43:01.980Z,95585.40
2023-03-11T14:45:32.294Z,95600.20
2023-03-11T14:48:23.292Z,95609.80
2023-03-11T14:50:51.602Z,95608.00
2023-03-11T14:53:24.127Z,95599.80
2023-03-11T14:55:55.031Z,95607.40
2023-03-11T14:58:37.122Z,95602.00
2023-03-11T15:01:14.855Z,95597.80
2023-03-11T15:03:48.054Z,95598.00
2023-03-11T15:06:17.227Z,95597.80
2023-03-11T15:08:55.351Z,95608.40
2023-03-11T15:11:25.279Z,95610.00
2023-03-11T15:13:53.395Z,95617.80
2023-03-11T15:16:31.748Z,95612.00
2023-03-11T15:19:20.918Z,95618.40
2023-03-11T15:21:49.724Z,95611.20
2023-03-11T15:24:27.151Z,95620.60
2023-03-11T15:27:09.114Z,95614.00
2023-03-11T15:29:37.422Z,95614.40
2023-03-11T15:32:35.687Z,95618.40
2023-03-11T15:35:14.363Z,95633.60
2023-03-11T15:37:42.777Z,95645.40
2023-03-11T15:40:42.381Z,95666.80
2023-03-11T15:43:15.630Z,95671.00
2023-03-11T15:45:44.119Z,95680.80
2023-03-11T15:48:13.012Z,95691.40
2023-03-11T15:50:53.627Z,95708.80
2023-03-11T15:53:23.424Z,95712.60
2023-03-11T15:55:52.278Z,95717.80
2023-03-11T15:58:20.370Z,95727.40
2023-03-11T16:00:49.977Z,95724.80
2023-03-11T16:03:18.391Z,95731.00
2023-03-11T16:05:46.938Z,95743.80
2023-03-11T16:08:14.946Z,95751.60
2023-03-11T16:10:42.940Z,95749.20
2023-03-11T16:13:12.762Z,95749.60
2023-03-11T16:15:42.333Z,95758.40
2023-03-11T16:18:10.557Z,95760.20
2023-03-11T16:20:46.502Z,95761.00
2023-03-11T16:23:22.355Z,95771.40
2023-03-11T16:25:50.540Z,95774.20
2023-03-11T16:28:18.632Z,95779.00
2023-03-11T16:30:46.734Z,95778.80
2023-03-11T16:33:14.839Z,95780.60
2023-03-11T16:35:42.932Z,95793.20
2023-03-11T16:38:11.023Z,95804.40
2023-03-11T16:40:39.291Z,95808.80
2023-03-11T16:43:10.283Z,95817.80
2023-03-11T16:45:41.630Z,95825.80
2023-03-11T16:48:09.746Z,95838.80
2023-03-11T16:50:37.861Z,95833.20
2023-03-11T16:53:05.979Z,95837.40
2023-03-11T16:55:34.048Z,95837.60
2023-03-11T16:58:02.108Z,95847.40
2023-03-11T17:00:30.280Z,95856.00
2023-03-11T17:02:58.544Z,95847.60
2023-03-11T17:05:26.612Z,95857.00
2023-03-11T17:07:57.267Z,95863.00
2023-03-11T17:10:25.373Z,95868.00
2023-03-11T17:12:53.743Z,95867.60
2023-03-11T17:15:21.819Z,95872.80
2023-03-11T17:17:50.729Z,95882.00
2023-03-11T17:20:21.508Z,95884.80
2023-03-11T17:22:49.923Z,95893.20
2023-03-11T17:25:18.423Z,95898.20
2023-03-11T17:27:46.494Z,95909.00
2023-03-11T17:30:19.397Z,95902.20
2023-03-11T17:32:52.696Z,95905.00
2023-03-11T17:35:20.711Z,95912.00
2023-03-11T17:37:48.749Z,95910.00
2023-03-11T17:40:17.070Z,95915.00
2023-03-11T17:42:45.083Z,95914.60
2023-03-11T17:45:13.358Z,95920.40
2023-03-11T17:47:41.325Z,95924.80
2023-03-11T17:50:10.316Z,95922.40
2023-03-11T17:52:38.291Z,95923.80
2023-03-11T17:55:06.963Z,95914.00
2023-03-11T17:57:44.512Z,95921.40
2023-03-11T18:00:14.980Z,95919.60
2023-03-11T18:02:43.187Z,95918.20
2023-03-11T18:05:11.311Z,95929.60
2023-03-11T18:07:39.496Z,95928.60
2023-03-11T18:10:07.988Z,95933.00
2023-03-11T18:12:36.270Z,95927.40
2023-03-11T18:15:06.209Z,95937.60
2023-03-11T18:17:37.117Z,95938.40
2023-03-11T18:20:05.976Z,95939.40
2023-03-11T18:22:35.393Z,95936.00
2023-03-11T18:25:03.738Z,95941.20
2023-03-11T18:27:31.708Z,95947.60
2023-03-11T18:30:01.943Z,95950.00
2023-03-11T18:32:30.159Z,95949.80
2023-03-11T18:34:58.100Z,95944.20
2023-03-11T18:37:26.721Z,95948.80
2023-03-11T18:39:54.923Z,95961.80
2023-03-11T18:42:22.936Z,95955.00
2023-03-11T18:44:50.939Z,95957.40
2023-03-11T18:47:19.004Z,95968.20
2023-03-11T18:49:47.484Z,95966.20
2023-03-11T18:52:16.134Z,95972.60
2023-03-11T18:54:44.648Z,95974.60
2023-03-11T18:57:12.663Z,95985.00
2023-03-11T18:59:40.752Z,95988.00
2023-03-11T19:02:10.124Z,96001.20
2023-03-11T19:04:38.329Z,96001.60
2023-03-11T19:07:06.429Z,96010.40
2023-03-11T19:09:34.574Z,96019.60
2023-03-11T19:12:02.683Z,96023.60
2023-03-11T19:14:30.685Z,96021.00
2023-03-11T19:16:58.881Z,96030.40
2023-03-11T19:19:26.879Z,96035.80
2023-03-11T19:21:55.235Z,96040.00
2023-03-11T19:24:23.425Z,96033.40
2023-03-11T19:26:59.589Z,96043.40
2023-03-11T19:29:27.577Z,96048.40
2023-03-11T19:31:55.858Z,96056.60
2023-03-11T19:34:24.029Z,96063.20
2023-03-11T19:36:52.206Z,96066.20
2023-03-11T19:39:20.342Z,96074.80
2023-03-11T19:41:48.376Z,96080.20
2023-03-11T19:44:16.401Z,96090.60
2023-03-11T19:46:44.573Z,96099.40
2023-03-11T19:49:12.644Z,96105.00
2023-03-11T19:51:49.599Z,96106.20
2023-03-11T19:54:19.035Z,96112.60
2023-03-11T19:56:48.119Z,96112.20
2023-03-11T19:59:16.337Z,96121.20
2023-03-11T20:01:44.629Z,96122.40
2023-03-11T20:04:15.715Z,96115.60
2023-03-11T20:06:44.231Z,96124.00
2023-03-11T20:09:13.282Z,96130.80
2023-03-11T20:11:41.739Z,96132.00
2023-03-11T20:14:10.035Z,96141.40
2023-03-11T20:16:38.244Z,96150.00
2023-03-11T20:19:06.715Z,96150.00
2023-03-11T20:21:39.053Z,96154.20
2023-03-11T20:24:07.674Z,96157.20
2023-03-11T20:26:35.990Z,96161.20
2023-03-11T20:29:04.437Z,96160.80
2023-03-11T20:31:32.663Z,96159.40
2023-03-11T20:34:01.004Z,96169.60
2023-03-11T20:36:33.567Z,96174.00
2023-03-11T20:39:01.954Z,96175.80
2023-03-11T20:41:34.270Z,96183.80
2023-03-11T20:44:02.630Z,96190.40
2023-03-11T20:46:31.453Z,96195.40
2023-03-11T20:49:02.663Z,96192.80
2023-03-11T20:51:30.746Z,96196.80
2023-03-11T20:53:58.909Z,96192.80
2023-03-11T20:56:27.134Z,96197.40
2023-03-11T20:58:56.013Z,96205.20
2023-03-11T21:01:26.783Z,96206.00
2023-03-11T21:03:56.652Z,96205.60
2023-03-11T21:06:29.656Z,96220.80
2023-03-11T21:08:59.349Z,96225.40
2023-03-11T21:11:27.655Z,96233.00
2023-03-11T21:13:56.430Z,96244.20
2023-03-11T21:16:24.672Z,96242.80
2023-03-11T21:18:53.054Z,96244.00
2023-03-11T21:21:21.318Z,96238.80
2023-03-11T21:23:49.500Z,96236.80
2023-03-11T21:26:19.269Z,96245.40
2023-03-11T21:28:47.904Z,96253.40
2023-03-11T21:31:20.647Z,96257.40
2023-03-11T21:33:49.163Z,96255.80
2023-03-11T21:36:17.519Z,96255.60
2023-03-11T21:38:46.894Z,96259.60
2023-03-11T21:41:19.951Z,96257.20
2023-03-11T21:43:48.345Z,96267.60
2023-03-11T21:46:18.265Z,96267.00
2023-03-11T21:48:46.882Z,96272.20
2023-03-11T21:51:15.630Z,96275.00
2023-03-11T21:53:43.778Z,96290.80
2023-03-11T21:56:13.346Z,96285.40
2023-03-11T21:58:42.082Z,96294.80
2023-03-11T22:01:10.519Z,96294.60
2023-03-11T22:03:38.718Z,96306.40
2023-03-11T22:06:11.443Z,96312.60
2023-03-11T22:08:39.819Z,96317.60
2023-03-11T22:11:08.896Z,96323.80
2023-03-11T22:13:37.076Z,96323.60
2023-03-11T22:16:06.288Z,96321.00
2023-03-11T22:18:34.653Z,96329.60
2023-03-11T22:21:02.862Z,96327.80
2023-03-11T22:23:31.070Z,96334.00
2023-03-11T22:25:59.044Z,96340.00
2023-03-11T22:28:27.162Z,96346.80
2023-03-11T22:30:55.200Z,96352.00
2023-03-11T22:33:23.284Z,96347.00
2023-03-11T22:35:53.263Z,96351.20
2023-03-11T22:38:21.637Z,96348.00
2023-03-11T22:40:49.742Z,96350.00
2023-03-11T22:43:17.714Z,96352.80
2023-03-11T22:45:45.875Z,96352.20
2023-03-11T22:48:14.205Z,96347.80
2023-03-11T22:50:44.414Z,96355.80
2023-03-11T22:53:12.809Z,96353.80
2023-03-11T22:55:41.687Z,96356.00
2023-03-11T22:58:09.813Z,96351.60
2023-03-11T23:00:38.084Z,96355.60
2023-03-11T23:03:06.282Z,96362.20
2023-03-11T23:05:40.827Z,96357.60
2023-03-11T23:08:13.832Z,96363.60
2023-03-11T23:10:46.417Z,96362.40
2023-03-11T23:13:14.768Z,96366.80
2023-03-11T23:15:44.315Z,96362.40
2023-03-11T23:18:12.629Z,96356.40
2023-03-11T23:20:40.883Z,96360.80
2023-03-11T23:23:09.224Z,96357.80
2023-03-11T23:25:37.382Z,96362.00
2023-03-11T23:28:05.809Z,96363.80
2023-03-11T23:30:34.006Z,96365.60
2023-03-11T23:33:03.093Z,96369.20
2023-03-11T23:35:32.207Z,96377.20
2023-03-11T23:38:00.502Z,96380.40
2023-03-11T23:40:28.962Z,96381.00
2023-03-11T23:42:57.110Z,96389.60
2023-03-11T23:45:25.194Z,96394.40
2023-03-11T23:47:53.307Z,96398.60
2023-03-11T23:50:21.393Z,96400.20
2023-03-11T23:52:49.429Z,96403.40
2023-03-11T23:55:17.636Z,96407.40
2023-03-11T23:57:45.799Z,96417.60
